The Official Home Page Of The Professional Rodeo Cowboys Association PRCA RAM WORLD STANDINGS
ProRodeoTv.Com



Official Gear Of The PRCA

PRCA Stock Statistics

SEARCH BY:
Stock Rodeo Contestant Stock Contractor

Chance Ames

EVENT:
Unofficial results reflect placement at time of Web posting and can change.

SEASON BREAKDOWN

Season Attempts Qual Rides Re-rides Ride %
2018 33 27 0 81.82 %
2017 17 11 0 64.71 %
Totals 50 38 0 0.00 %

RODEO DETAIL

Date Location Rodeo SC Brand Ride Comments Stock Score Contestant Score
9/2/2018 Evanston, WY Evanston Cowboy Days Inc BT +3A 75.50 16.00 / 17.00 21.50 / 21.00
9/1/2018 Manila, UT Daggett County Centennial Rodeo DH 384 80.00 20.00 / 20.00 20.00 / 20.00
8/25/2018 Pueblo, CO Colorado State Fair & Rodeo HV 306 79.00 19.00 / 21.00 21.00 / 18.00
8/11/2018 Afton, WY Lincoln County Fair & Rodeo SM MY 74.00 18.00 / 17.00 20.00 / 19.00
8/3/2018 Castle Rock, CO Douglas County Fair and Rodeo SM 707 78.00 20.00 / 19.00 19.00 / 20.00
7/30/2018 Riverton, WY Wind River PRCA Rodeo Roundup DH 230 77.00 19.00 / 21.00 18.00 / 19.00
7/28/2018 Rock Springs, WY Red Desert Roundup PR 0873- 71.00 20.00 / 19.00 19.00 / 13.00
7/11/2018 Sheridan, WY Sheridan WYO Rodeo SA 010 76.00 21.00 / 22.00 15.00 / 18.00
7/1/2018 Greeley, CO Greeley Stampede BU 928 0.00 22.00 / 23.00 0.00 / 0.00
6/29/2018 Flagstaff, AZ Flagstaff Pro Rodeo CB V28 81.50 20.00 / 19.00 22.50 / 20.00
6/28/2018 Lehi, UT Lehi Roundup FR SW 0.00 20.00 / 20.00 0.00 / 0.00
6/23/2018 Thermopolis, WY Thermopolis Cowboy Rendezvous PRCA Rodeo PR 192 0.00 23.00 / 21.00 0.00 / 0.00
6/22/2018 Mountain Home, ID Daniel Dopps Memorial Ram PRCA Rodeo SM M0 66.00 18.00 / 18.00 14.00 / 16.00
6/22/2018 Meridian, ID Meridian Lions Rodeo WR 82 70.00 17.00 / 18.00 17.00 / 18.00
6/20/2018 Pleasant Grove, UT Strawberry Days Rodeo BT 1+3 69.50 18.00 / 17.00 15.00 / 19.50
6/2/2018 Elizabeth, CO Elizabeth Stampede Rodeo SM 09 81.00 19.00 / 19.00 21.00 / 22.00
6/1/2018 Herriman, UT Fort Herriman PRCA Rodeo BT P1A 72.50 18.00 / 17.00 19.50 / 18.00
5/31/2018 Moab, UT Canyonlands PRCA Rodeo BT 7+1 86.50 21.50 / 21.00 22.00 / 22.00
5/28/2018 Eagle Mountain, UT Pony Express Rodeo BT P8B 65.00 17.00 / 16.00 13.00 / 19.00
3/10/2018 Valley City, ND North Dakota Winter Show SU 253 74.00 19.00 / 18.00 18.00 / 19.00
2/1/2018 Rapid City, SD Rodeo Rapid City SU -303 81.00 21.00 / 19.00 20.00 / 21.00
1/30/2018 Fort Worth, TX Southwestern Exposition and Livestock Show RG 806 0.00 17.00 / 21.00 0.00 / 0.00
1/30/2018 Fort Worth, TX Southwestern Exposition and Livestock Show AN R3 68.50 17.00 / 15.50 17.00 / 19.00
1/29/2018 Fort Worth, TX Southwestern Exposition and Livestock Show JD 301 79.00 20.50 / 19.00 19.50 / 20.00
1/26/2018 Lakeland, FL Mason ProRodeo Classic FL 100 73.00 18.00 / 18.00 19.00 / 18.00
Page of 2
Per Page
 
 
 
PRCA National Sponsors
MGM Grand Polaris Ranger American Quarter Horse Association Cinch Jeans
Copyright © 2018 Professional Rodeo Cowboys Association. All rights reserved. No portion of ProRodeo.com may be duplicated, redistributed or manipulated in any form. By accessing any information beyond this page, you agree to abide by the Terms of Use.
PRCA Wrangler National Finals Rodeo Wrangler ProRodeo Tour Finale Presented by Justin Boots Xtreme Bulls RAM National Circuit Finals Rodeo ProRodeo Gear ProRodeo Tour